Time;durP1;ratioP1;P1;durP2;ratioP2;P2;SDS_P1;SDS_P2;PMS_P1;PMS_P2;Temp;Humidity;BMP_temperature;BMP_pressure;BME280_temperature;BME280_humidity;BME280_pressure;Samples;Min_cycle;Max_cycle;Signal;HPM_P1;HPM_P2
2022/05/12 00:00:00;;;;;;;6.13;3.60;;;;;;;14.97;67.71;99535.56;5108402;28;20617;-86
2022/05/12 00:02:28;;;;;;;4.40;3.80;;;;;;;15.02;67.90;99521.38;5108518;28;20197;-87
2022/05/12 00:04:55;;;;;;;6.10;3.60;;;;;;;15.08;67.89;99525.19;5108587;28;20657;-90
2022/05/12 00:07:22;;;;;;;4.63;3.77;;;;;;;15.07;67.92;99524.38;5108685;28;20815;-85
2022/05/12 00:09:49;;;;;;;5.50;4.00;;;;;;;15.01;68.16;99534.38;5109242;28;20252;-85
2022/05/12 00:12:15;;;;;;;5.93;3.60;;;;;;;14.93;68.79;99517.81;5112700;28;20244;-86
2022/05/12 00:14:44;;;;;;;7.30;3.53;;;;;;;14.99;68.63;99525.97;5112217;28;20225;-86
2022/05/12 00:17:11;;;;;;;6.20;3.47;;;;;;;14.96;68.89;99521.88;5112314;28;20242;-86
2022/05/12 00:19:37;;;;;;;5.33;3.50;;;;;;;14.97;69.18;99523.50;5112375;28;20220;-85
2022/05/12 00:22:04;;;;;;;5.97;3.83;;;;;;;14.92;69.16;99518.75;5112443;28;20235;-85
2022/05/12 00:24:31;;;;;;;4.77;3.60;;;;;;;14.85;69.17;99524.53;5112435;28;20225;-91
2022/05/12 00:26:58;;;;;;;6.20;3.90;;;;;;;14.84;69.41;99528.06;5112416;28;20202;-86
2022/05/12 00:29:26;;;;;;;5.47;3.20;;;;;;;14.81;69.56;99533.47;5112066;28;20711;-91
2022/05/12 00:31:54;;;;;;;5.00;3.70;;;;;;;14.79;69.80;99525.06;5112118;28;20197;-90
2022/05/12 00:34:22;;;;;;;4.97;3.73;;;;;;;14.74;69.97;99532.31;5112357;28;20221;-91
2022/05/12 00:36:49;;;;;;;5.90;3.77;;;;;;;14.66;69.83;99531.22;5112273;28;20197;-91
2022/05/12 00:39:16;;;;;;;5.13;3.80;;;;;;;14.71;70.21;99536.78;5111986;28;20322;-86
2022/05/12 00:41:44;;;;;;;9.17;3.90;;;;;;;14.69;70.06;99538.69;5112076;28;20208;-85
2022/05/12 00:44:12;;;;;;;6.20;4.00;;;;;;;14.61;70.21;99537.69;5111927;28;20212;-86
2022/05/12 00:46:42;;;;;;;4.57;3.50;;;;;;;14.60;70.18;99542.00;5112252;28;20270;-86
2022/05/12 00:49:18;;;;;;;5.07;3.90;;;;;;;14.60;70.15;99529.16;5112081;28;20510;-92
2022/05/12 00:51:48;;;;;;;5.17;3.77;;;;;;;14.58;70.18;99535.34;5111970;28;20199;-86
2022/05/12 00:54:21;;;;;;;6.17;3.70;;;;;;;14.51;71.02;99535.00;5112091;28;20221;-85
2022/05/12 00:56:50;;;;;;;5.37;3.37;;;;;;;14.48;70.87;99532.66;5111606;28;20235;-86
2022/05/12 00:59:23;;;;;;;6.37;3.80;;;;;;;14.43;70.64;99533.06;5111831;28;20266;-92
2022/05/12 01:01:51;;;;;;;5.57;3.87;;;;;;;14.38;70.61;99536.94;5111924;28;20193;-91
2022/05/12 01:04:22;;;;;;;5.30;3.67;;;;;;;14.42;70.66;99533.97;5111644;28;20242;-90
2022/05/12 01:06:49;;;;;;;4.50;3.80;;;;;;;14.40;70.77;99530.72;5111613;28;20295;-86
2022/05/12 01:09:16;;;;;;;6.13;4.03;;;;;;;14.35;70.93;99538.00;5111535;28;20308;-92
2022/05/12 01:11:44;;;;;;;4.70;3.60;;;;;;;14.31;70.77;99538.34;5111394;28;20865;-87
2022/05/12 01:14:11;;;;;;;7.70;4.03;;;;;;;14.32;70.49;99534.88;5111750;28;20705;-86
2022/05/12 01:16:45;;;;;;;5.10;3.70;;;;;;;14.27;70.91;99536.03;5111205;28;20207;-86
2022/05/12 01:19:15;;;;;;;5.20;3.70;;;;;;;14.26;70.86;99542.13;5111596;28;20312;-87
2022/05/12 01:21:44;;;;;;;5.47;3.73;;;;;;;14.22;70.76;99548.47;5110543;28;20237;-92
2022/05/12 01:24:12;;;;;;;5.03;3.90;;;;;;;14.24;71.07;99546.56;5111456;28;20714;-87
2022/05/12 01:26:40;;;;;;;5.67;3.87;;;;;;;14.18;70.77;99552.22;5111074;28;20228;-92
2022/05/12 01:29:08;;;;;;;7.43;3.93;;;;;;;14.21;70.58;99546.81;5111177;28;20199;-87
2022/05/12 01:31:36;;;;;;;5.60;3.97;;;;;;;14.25;70.77;99545.66;5111187;28;20664;-93
2022/05/12 01:34:05;;;;;;;6.53;3.90;;;;;;;14.24;71.29;99540.63;5111553;28;20848;-92
2022/05/12 01:36:32;;;;;;;6.47;4.03;;;;;;;14.20;71.29;99545.19;5111404;28;20656;-87
2022/05/12 01:38:59;;;;;;;5.57;3.87;;;;;;;14.19;71.13;99543.53;5111180;28;20708;-91
2022/05/12 01:41:28;;;;;;;5.90;3.73;;;;;;;14.13;71.08;99541.47;5110673;28;20222;-92
2022/05/12 01:43:54;;;;;;;4.47;3.57;;;;;;;14.05;71.37;99543.84;5110907;28;20642;-87
2022/05/12 01:46:21;;;;;;;5.07;3.57;;;;;;;14.05;71.33;99541.28;5111260;28;20207;-87
2022/05/12 01:48:48;;;;;;;7.03;3.93;;;;;;;14.04;71.74;99539.63;5111000;28;20680;-91
2022/05/12 01:51:15;;;;;;;4.17;3.47;;;;;;;14.01;71.61;99539.88;5110334;28;20727;-87
2022/05/12 01:53:42;;;;;;;4.70;3.80;;;;;;;13.99;71.53;99544.31;5110758;28;20210;-86
2022/05/12 01:56:09;;;;;;;8.07;3.90;;;;;;;13.98;71.33;99547.81;5110681;28;20262;-91
2022/05/12 01:58:38;;;;;;;6.87;4.00;;;;;;;13.96;71.77;99547.13;5110945;28;20266;-91
2022/05/12 02:01:05;;;;;;;5.80;3.73;;;;;;;13.95;71.65;99550.66;5110379;28;20652;-91
2022/05/12 02:03:32;;;;;;;5.53;3.60;;;;;;;13.93;71.39;99543.06;5110616;28;20244;-87
2022/05/12 02:06:01;;;;;;;5.13;3.70;;;;;;;13.92;71.42;99550.88;5110769;28;20226;-87
2022/05/12 02:08:27;;;;;;;7.50;3.53;;;;;;;13.89;71.36;99548.56;5110405;28;20198;-87
2022/05/12 02:10:54;;;;;;;5.60;3.83;;;;;;;13.90;71.24;99552.75;5110536;28;20226;-91
2022/05/12 02:13:25;;;;;;;5.63;3.90;;;;;;;13.87;71.39;99548.66;5110439;28;20194;-87
2022/05/12 02:15:54;;;;;;;6.37;3.47;;;;;;;13.82;71.55;99559.31;5110065;28;20216;-87
2022/05/12 02:18:22;;;;;;;6.83;3.80;;;;;;;13.81;71.32;99555.09;5110284;28;20234;-91
2022/05/12 02:20:50;;;;;;;5.37;3.80;;;;;;;13.81;71.36;99560.25;5110070;28;20282;-87
2022/05/12 02:23:17;;;;;;;5.87;3.97;;;;;;;13.81;71.55;99560.25;5110134;28;20202;-86
2022/05/12 02:25:44;;;;;;;5.80;3.77;;;;;;;13.75;71.74;99560.72;5109743;28;20226;-90
2022/05/12 02:28:11;;;;;;;4.83;3.43;;;;;;;13.74;71.57;99551.38;5110150;28;20214;-90
2022/05/12 02:30:38;;;;;;;6.17;3.70;;;;;;;13.72;71.85;99566.09;5109728;28;20233;-91
2022/05/12 02:33:07;;;;;;;6.63;4.17;;;;;;;13.67;72.15;99557.13;5109862;28;20214;-86
2022/05/12 02:35:35;;;;;;;5.10;3.90;;;;;;;13.65;72.22;99559.81;5109860;28;20271;-87
2022/05/12 02:38:02;;;;;;;6.57;3.50;;;;;;;13.65;72.23;99556.44;5109806;28;20600;-90
2022/05/12 02:40:29;;;;;;;6.03;3.80;;;;;;;13.64;72.36;99558.16;5109975;28;20226;-86
2022/05/12 02:42:58;;;;;;;4.90;3.60;;;;;;;13.61;72.54;99553.25;5109671;28;20249;-86
2022/05/12 02:45:25;;;;;;;7.87;4.27;;;;;;;13.58;72.31;99553.50;5109548;28;20250;-86
2022/05/12 02:47:52;;;;;;;5.13;3.90;;;;;;;13.54;72.60;99555.50;5109688;28;20208;-90
2022/05/12 02:50:20;;;;;;;6.90;3.80;;;;;;;13.52;72.66;99553.97;5110045;28;20713;-90
2022/05/12 02:52:47;;;;;;;5.03;4.10;;;;;;;13.53;72.57;99553.06;5109547;28;20202;-86
2022/05/12 02:55:14;;;;;;;5.83;3.73;;;;;;;13.53;72.50;99556.44;5109276;28;20214;-89
2022/05/12 02:57:41;;;;;;;5.70;4.03;;;;;;;13.51;72.75;99562.63;5109534;28;20210;-90
2022/05/12 03:00:12;;;;;;;4.90;4.07;;;;;;;13.49;73.02;99552.47;5109224;28;20234;-86
2022/05/12 03:02:39;;;;;;;5.93;4.23;;;;;;;13.46;73.51;99567.28;5109098;28;20197;-87
2022/05/12 03:05:07;;;;;;;6.77;4.00;;;;;;;13.47;73.59;99556.09;5109639;28;20224;-87
2022/05/12 03:07:35;;;;;;;5.50;3.93;;;;;;;13.43;73.68;99559.81;5109044;28;20189;-86
2022/05/12 03:10:02;;;;;;;4.80;3.43;;;;;;;13.39;74.15;99564.38;5109219;28;20581;-86
2022/05/12 03:12:30;;;;;;;6.73;3.97;;;;;;;13.36;74.04;99560.28;5108893;28;20197;-86
2022/05/12 03:14:57;;;;;;;4.83;3.93;;;;;;;13.35;74.66;99561.25;5109177;28;20257;-87
2022/05/12 03:17:23;;;;;;;6.73;4.23;;;;;;;13.33;74.32;99565.66;5108878;28;20205;-86
2022/05/12 03:19:50;;;;;;;6.10;3.63;;;;;;;13.33;74.61;99573.38;5108867;28;20719;-90
2022/05/12 03:22:17;;;;;;;4.50;3.93;;;;;;;13.29;75.09;99568.56;5109356;28;20210;-87
2022/05/12 03:24:45;;;;;;;5.93;4.00;;;;;;;13.27;75.14;99578.16;5108921;28;20224;-87
2022/05/12 03:27:13;;;;;;;5.67;3.73;;;;;;;13.28;75.43;99578.03;5108777;28;20198;-86
2022/05/12 03:29:40;;;;;;;5.03;3.97;;;;;;;13.27;75.46;99576.41;5108723;28;20260;-89
2022/05/12 03:32:10;;;;;;;4.80;3.87;;;;;;;13.27;75.46;99578.97;5109230;28;20337;-87
2022/05/12 03:34:38;;;;;;;6.20;4.30;;;;;;;13.26;76.11;99574.75;5109004;28;20221;-86
2022/05/12 03:37:05;;;;;;;6.50;3.90;;;;;;;13.27;75.99;99573.84;5108666;28;20276;-86
2022/05/12 03:39:32;;;;;;;5.07;4.17;;;;;;;13.30;75.94;99585.63;5108471;28;20240;-86
2022/05/12 03:42:00;;;;;;;7.43;4.40;;;;;;;13.34;75.85;99587.84;5108521;28;20201;-89
2022/05/12 03:47:12;;;;;;;6.13;4.10;;;;;;;13.39;76.17;99587.50;5109138;28;20686;-89
2022/05/12 03:49:39;;;;;;;4.53;3.80;;;;;;;13.42;76.43;99589.03;5108494;28;20232;-86
2022/05/12 03:52:07;;;;;;;7.50;4.10;;;;;;;13.46;76.08;99595.56;5108566;28;20202;-88
2022/05/12 03:54:35;;;;;;;5.47;3.80;;;;;;;13.52;76.10;99595.09;5108660;28;20720;-89
2022/05/12 03:57:03;;;;;;;5.77;4.17;;;;;;;13.54;75.77;99588.09;5108472;28;20292;-89
2022/05/12 03:59:31;;;;;;;5.57;3.90;;;;;;;13.57;75.86;99598.13;5108625;28;20699;-89
2022/05/12 04:01:57;;;;;;;5.30;3.90;;;;;;;13.62;75.82;99606.31;5108568;28;20194;-89
2022/05/12 04:04:24;;;;;;;6.30;3.97;;;;;;;13.70;76.10;99598.84;5108777;28;20256;-90
2022/05/12 04:06:51;;;;;;;5.40;3.90;;;;;;;13.78;76.02;99606.75;5108365;28;20220;-86
2022/05/12 04:09:18;;;;;;;7.53;3.97;;;;;;;13.86;76.29;99603.59;5108445;28;20217;-90
2022/05/12 04:11:45;;;;;;;6.50;4.00;;;;;;;13.93;75.93;99609.91;5108658;28;20213;-89
2022/05/12 04:14:13;;;;;;;5.30;4.20;;;;;;;14.00;76.21;99610.25;5108340;28;20206;-86
2022/05/12 04:16:40;;;;;;;6.50;3.97;;;;;;;14.14;76.06;99617.69;5108232;28;20206;-87
2022/05/12 04:19:07;;;;;;;5.20;3.80;;;;;;;14.24;75.56;99613.44;5108540;28;20230;-89
2022/05/12 04:21:34;;;;;;;5.33;3.77;;;;;;;14.37;75.89;99617.59;5108483;28;20207;-86
2022/05/12 04:24:02;;;;;;;5.47;4.00;;;;;;;14.48;75.82;99615.00;5108289;28;20262;-90
2022/05/12 04:26:29;;;;;;;5.03;3.80;;;;;;;14.62;74.16;99616.50;5108202;28;20242;-90
2022/05/12 04:28:56;;;;;;;6.80;4.33;;;;;;;14.79;74.14;99626.25;5108279;28;20211;-90
2022/05/12 04:31:24;;;;;;;4.40;3.60;;;;;;;14.91;72.22;99621.84;5108212;28;20201;-86
2022/05/12 04:36:36;;;;;;;8.00;4.10;;;;;;;15.29;72.16;99626.41;5108261;28;20266;-86
2022/05/12 04:39:03;;;;;;;5.63;3.93;;;;;;;15.40;71.36;99630.69;5108277;28;20718;-86
2022/05/12 04:41:30;;;;;;;5.63;3.50;;;;;;;15.53;70.49;99636.47;5107974;28;20193;-86
2022/05/12 04:43:58;;;;;;;4.60;3.57;;;;;;;15.74;70.65;99641.59;5108125;28;20727;-90
2022/05/12 04:46:27;;;;;;;5.13;3.73;;;;;;;16.03;69.96;99641.69;5107944;28;20567;-90
2022/05/12 04:48:55;;;;;;;6.53;3.63;;;;;;;16.34;68.52;99644.16;5108254;28;20189;-90
2022/05/12 04:51:23;;;;;;;5.17;3.50;;;;;;;16.56;66.95;99647.47;5108212;28;20532;-90
2022/05/12 04:53:50;;;;;;;4.53;3.40;;;;;;;16.84;67.05;99646.66;5108037;28;20296;-87
2022/05/12 04:56:16;;;;;;;6.37;3.60;;;;;;;17.08;66.43;99648.00;5107760;28;20221;-86
2022/05/12 04:58:43;;;;;;;6.83;3.73;;;;;;;17.39;65.55;99648.59;5111597;28;20201;-86
2022/05/12 05:01:10;;;;;;;6.23;3.50;;;;;;;17.70;63.21;99650.94;5111519;28;20221;-85
2022/05/12 05:03:38;;;;;;;5.50;3.63;;;;;;;18.00;63.85;99655.03;5111592;28;20209;-89
2022/05/12 05:06:05;;;;;;;4.00;3.60;;;;;;;18.27;61.64;99657.63;5111040;28;20226;-86
2022/05/12 05:08:32;;;;;;;5.87;3.60;;;;;;;18.59;60.52;99656.31;5111554;28;20607;-89
2022/05/12 05:10:59;;;;;;;4.60;3.70;;;;;;;18.84;60.52;99659.13;5110997;28;20214;-86
2022/05/12 05:13:26;;;;;;;7.67;3.63;;;;;;;19.09;59.53;99662.72;5111293;28;20207;-86
2022/05/12 05:15:54;;;;;;;4.70;3.50;;;;;;;19.34;60.42;99661.88;5111084;28;20603;-87
2022/05/12 05:18:22;;;;;;;6.17;3.47;;;;;;;19.64;57.96;99663.19;5111615;28;20282;-83
2022/05/12 05:20:50;;;;;;;7.80;4.07;;;;;;;19.90;56.93;99663.19;5111114;28;20233;-88
2022/05/12 05:23:21;;;;;;;5.60;3.53;;;;;;;20.03;56.56;99659.31;5111112;28;20696;-88
2022/05/12 05:25:48;;;;;;;3.87;3.10;;;;;;;20.25;55.43;99666.53;5111046;28;20222;-89
2022/05/12 05:28:15;;;;;;;5.00;3.37;;;;;;;20.47;54.31;99669.47;5111356;28;20685;-85
2022/05/12 05:30:42;;;;;;;4.20;3.47;;;;;;;20.62;53.34;99664.50;5110943;28;20239;-86
2022/05/12 05:33:10;;;;;;;5.90;3.50;;;;;;;20.87;52.69;99671.31;5111103;28;20609;-86
2022/05/12 05:35:37;;;;;;;5.03;3.20;;;;;;;21.10;51.73;99676.66;5111041;28;20220;-88
2022/05/12 05:38:05;;;;;;;4.50;3.17;;;;;;;21.31;51.61;99668.34;5111378;28;20211;-89
2022/05/12 05:40:32;;;;;;;3.97;3.20;;;;;;;21.48;50.81;99672.56;5110745;28;20665;-86
2022/05/12 05:43:00;;;;;;;7.53;3.40;;;;;;;21.73;50.89;99672.50;5110735;28;20698;-86
2022/05/12 05:45:27;;;;;;;5.17;3.37;;;;;;;22.01;50.52;99680.66;5110486;28;20234;-85
2022/05/12 05:47:58;;;;;;;5.67;3.67;;;;;;;22.13;48.60;99674.09;5110700;28;20206;-90
2022/05/12 05:50:27;;;;;;;5.20;3.63;;;;;;;22.37;49.06;99674.97;5110454;28;20217;-85
2022/05/12 05:55:40;;;;;;;6.40;3.40;;;;;;;23.03;49.93;99675.28;5110413;28;20237;-85
2022/05/12 05:58:07;;;;;;;7.30;3.83;;;;;;;23.26;48.50;99678.66;5110538;28;20583;-84
2022/05/12 06:00:36;;;;;;;7.13;3.30;;;;;;;23.42;46.14;99679.50;5110309;28;20324;-86
2022/05/12 06:03:03;;;;;;;6.57;3.80;;;;;;;23.71;47.55;99678.72;5110358;28;20217;-83
2022/05/12 06:05:31;;;;;;;8.20;3.53;;;;;;;23.88;46.85;99682.75;5110172;28;20233;-84
2022/05/12 06:07:58;;;;;;;7.40;3.95;;;;;;;24.06;46.15;99682.34;5109704;28;20286;-89
2022/05/12 06:10:26;;;;;;;6.32;4.15;;;;;;;24.22;46.17;99680.50;5110011;28;20248;-83
2022/05/12 06:12:54;;;;;;;8.27;3.92;;;;;;;24.24;45.30;99679.34;5110196;28;20201;-89
2022/05/12 06:15:21;;;;;;;10.85;3.80;;;;;;;24.26;45.51;99676.50;5110100;28;20220;-89
2022/05/12 06:17:48;;;;;;;5.10;3.70;;;;;;;24.40;45.43;99678.28;5110103;28;20570;-89
2022/05/12 06:20:16;;;;;;;6.68;3.80;;;;;;;24.58;44.51;99678.69;5109708;28;20234;-83
2022/05/12 06:22:43;;;;;;;5.00;3.75;;;;;;;24.74;46.58;99684.66;5109834;28;20228;-84
2022/05/12 06:25:15;;;;;;;4.28;3.65;;;;;;;24.98;44.87;99692.09;5109905;28;20768;-89
2022/05/12 06:27:42;;;;;;;4.78;3.45;;;;;;;25.32;46.05;99690.56;5110308;28;20216;-89
2022/05/12 06:30:14;;;;;;;6.18;3.80;;;;;;;25.32;43.64;99685.31;5109638;28;20225;-85
2022/05/12 06:32:42;;;;;;;3.97;3.38;;;;;;;25.47;44.90;99686.00;5109691;28;20197;-85
2022/05/12 06:35:10;;;;;;;3.90;3.50;;;;;;;25.12;44.09;99692.22;5109756;28;20770;-84
2022/05/12 06:37:38;;;;;;;5.40;4.05;;;;;;;25.07;46.22;99688.38;5109684;28;20258;-84
2022/05/12 06:40:06;;;;;;;7.50;4.53;;;;;;;25.32;44.51;99681.91;5109702;28;20233;-81
2022/05/12 06:56:35;;;;;;;4.90;3.97;;;;;;;27.06;41.50;99682.22;5126184;27;20556;-88
2022/05/12 06:59:02;;;;;;;5.35;4.10;;;;;;;26.99;41.70;99684.03;5126541;27;20662;-90
2022/05/12 07:01:29;;;;;;;4.72;3.67;;;;;;;26.85;41.10;99686.69;5126581;27;20225;-89
2022/05/12 07:03:57;;;;;;;6.88;3.97;;;;;;;26.68;42.19;99687.28;5126717;27;20281;-84
2022/05/12 07:06:24;;;;;;;4.65;4.00;;;;;;;26.71;41.32;99686.88;5126190;27;20627;-85
2022/05/12 07:08:51;;;;;;;8.70;4.57;;;;;;;26.71;42.93;99682.44;5126510;27;20204;-85
2022/05/12 07:11:18;;;;;;;9.15;4.75;;;;;;;27.20;42.64;99685.66;5126274;27;20209;-89
2022/05/12 07:13:46;;;;;;;9.45;4.97;;;;;;;27.57;42.03;99685.97;5126318;27;20197;-90
2022/05/12 07:16:14;;;;;;;10.30;5.22;;;;;;;27.75;42.11;99684.31;5126072;27;20221;-89
2022/05/12 07:18:41;;;;;;;7.53;4.35;;;;;;;28.05;40.44;99683.78;5126274;27;20201;-86
2022/05/12 07:26:37;;;;;;;4.82;4.22;;;;;;;28.69;39.25;99684.63;5125808;28;20215;-87
2022/05/12 07:29:08;;;;;;;8.30;4.30;;;;;;;28.78;40.26;99682.53;5125998;27;20201;-90
2022/05/12 07:31:34;;;;;;;5.45;4.22;;;;;;;28.87;40.26;99686.50;5126228;27;20205;-89
2022/05/12 07:34:01;;;;;;;5.40;3.90;;;;;;;28.92;38.72;99689.31;5126032;27;20603;-86
2022/05/12 07:36:30;;;;;;;6.53;4.25;;;;;;;29.28;38.83;99688.56;5125964;27;20220;-90
2022/05/12 07:38:57;;;;;;;4.72;3.53;;;;;;;29.44;38.63;99686.38;5126147;27;20611;-86
2022/05/12 07:41:25;;;;;;;4.75;3.80;;;;;;;29.68;36.73;99687.38;5125728;27;20221;-85
2022/05/12 07:43:52;;;;;;;4.57;3.83;;;;;;;29.86;38.12;99689.97;5125684;27;20248;-90
2022/05/12 07:46:23;;;;;;;5.97;3.70;;;;;;;30.05;38.31;99692.56;5125895;27;20290;-86
2022/05/12 07:48:50;;;;;;;8.68;4.20;;;;;;;29.81;37.02;99692.47;5125763;27;20454;-91
2022/05/12 07:51:18;;;;;;;5.00;3.85;;;;;;;29.57;35.85;99691.50;5125768;27;20221;-86
2022/05/12 07:53:47;;;;;;;5.88;3.97;;;;;;;30.15;37.04;99698.94;5125622;27;20223;-89
2022/05/12 07:56:15;;;;;;;7.22;3.70;;;;;;;30.26;36.66;99686.84;5118623;27;20225;-91
2022/05/12 07:58:43;;;;;;;4.90;3.65;;;;;;;30.64;36.12;99685.66;5111824;28;20714;-87
2022/05/12 08:01:10;;;;;;;6.50;3.80;;;;;;;30.86;36.42;99681.47;5111605;28;20232;-91
2022/05/12 08:03:39;;;;;;;5.10;3.42;;;;;;;31.14;34.97;99682.59;5111505;28;20198;-88
2022/05/12 08:06:07;;;;;;;4.38;3.70;;;;;;;31.13;33.35;99681.00;5111210;28;20237;-90
2022/05/12 08:08:34;;;;;;;4.15;3.63;;;;;;;31.02;36.05;99681.81;5111637;28;20201;-87
2022/05/12 08:11:01;;;;;;;3.83;3.28;;;;;;;31.12;35.23;99687.31;5111501;28;20714;-86
2022/05/12 08:13:28;;;;;;;5.35;4.10;;;;;;;30.86;33.76;99678.84;5111561;28;20194;-87
2022/05/12 08:15:55;;;;;;;5.57;3.70;;;;;;;30.78;35.73;99679.16;5111396;28;20602;-87
2022/05/12 08:18:24;;;;;;;4.43;3.70;;;;;;;31.33;34.22;99678.81;5111446;28;20205;-91
2022/05/12 08:20:53;;;;;;;6.53;3.72;;;;;;;31.49;35.06;99676.50;5110981;28;20221;-86
2022/05/12 08:23:21;;;;;;;6.47;3.97;;;;;;;31.83;36.25;99682.72;5111344;28;20255;-91
2022/05/12 08:25:48;;;;;;;6.32;3.80;;;;;;;31.98;32.84;99675.09;5111468;28;20301;-90
2022/05/12 08:28:17;;;;;;;8.65;4.05;;;;;;;32.20;31.15;99667.28;5111087;28;20213;-90
2022/05/12 08:30:45;;;;;;;6.93;3.95;;;;;;;32.26;31.95;99676.13;5110852;28;20223;-86
2022/05/12 08:33:12;;;;;;;7.35;3.60;;;;;;;32.07;32.41;99675.50;5110901;28;20667;-85
2022/05/12 08:35:40;;;;;;;4.70;3.55;;;;;;;32.15;32.76;99680.44;5111430;28;20272;-90
2022/05/12 08:38:08;;;;;;;5.35;3.40;;;;;;;32.00;31.66;99674.88;5110909;28;20212;-86
2022/05/12 08:40:46;;;;;;;6.68;3.67;;;;;;;32.08;33.50;99679.75;5110919;27;20590;-86
2022/05/12 08:43:16;;;;;;;6.20;3.80;;;;;;;32.27;31.52;99679.56;5110845;28;20189;-90
2022/05/12 08:45:44;;;;;;;5.15;4.28;;;;;;;32.25;31.62;99674.50;5110691;28;20241;-86
2022/05/12 08:48:13;;;;;;;7.07;4.40;;;;;;;32.41;30.76;99678.22;5110502;28;20487;-90
2022/05/12 08:50:40;;;;;;;5.25;3.53;;;;;;;32.84;34.00;99672.31;5110324;27;20224;-91
2022/05/12 08:53:13;;;;;;;5.57;3.97;;;;;;;32.91;31.92;99677.41;5110629;28;20232;-86
2022/05/12 08:55:45;;;;;;;4.28;3.58;;;;;;;33.10;31.85;99675.31;5110546;28;20229;-86
2022/05/12 08:58:20;;;;;;;4.68;3.40;;;;;;;33.29;32.39;99679.28;5110542;28;20202;-88
2022/05/12 09:00:57;;;;;;;3.90;3.30;;;;;;;33.50;30.65;99677.69;5110380;28;20221;-89
2022/05/12 09:03:35;;;;;;;6.07;3.17;;;;;;;33.57;31.09;99677.56;5110535;27;20654;-87
2022/05/12 09:06:06;;;;;;;4.78;3.60;;;;;;;33.60;30.60;99679.69;5110455;28;20233;-91
2022/05/12 09:08:43;;;;;;;5.95;3.38;;;;;;;33.56;31.66;99679.38;5109653;28;20190;-91
2022/05/12 09:11:20;;;;;;;3.38;3.03;;;;;;;33.84;30.30;99674.13;5110244;27;20224;-87
2022/05/12 09:13:49;;;;;;;3.83;3.40;;;;;;;33.46;30.83;99673.94;5110176;28;20197;-90
2022/05/12 09:16:20;;;;;;;4.50;3.40;;;;;;;33.49;29.53;99670.78;5110087;28;20225;-87
2022/05/12 09:18:48;;;;;;;4.45;3.40;;;;;;;33.57;29.22;99681.00;5110068;28;20599;-91
2022/05/12 09:21:16;;;;;;;5.38;3.42;;;;;;;33.75;29.36;99671.13;5109771;28;20222;-87
2022/05/12 09:23:44;;;;;;;3.50;3.20;;;;;;;33.54;27.19;99670.06;5109853;28;20193;-87
2022/05/12 09:26:40;;;;;;;3.40;3.00;;;;;;;33.43;27.14;99668.34;5109839;28;20612;-87
2022/05/12 09:29:16;;;;;;;5.32;3.33;;;;;;;33.10;26.83;99665.53;5073871;28;20204;-92
2022/05/12 09:31:46;;;;;;;5.07;3.20;;;;;;;33.17;27.43;99669.88;5109798;28;20201;-89
2022/05/12 09:34:31;;;;;;;3.80;3.25;;;;;;;33.03;27.99;99662.25;5109776;28;20714;-87
2022/05/12 09:37:15;;;;;;;6.15;3.13;;;;;;;33.22;27.15;99662.78;5107821;28;20402;-87
2022/05/12 09:39:44;;;;;;;5.55;3.10;;;;;;;32.53;29.96;99657.78;5109713;28;20217;-86
2022/05/12 09:42:36;;;;;;;3.28;2.97;;;;;;;33.08;27.65;99664.19;5109788;28;20198;-91
2022/05/12 09:45:08;;;;;;;3.70;2.83;;;;;;;33.26;29.01;99663.09;5109347;28;20245;-86
2022/05/12 09:47:36;;;;;;;4.60;2.83;;;;;;;33.48;26.31;99661.25;5109876;28;20237;-90
2022/05/12 09:50:17;;;;;;;3.72;2.58;;;;;;;33.67;25.59;99653.78;5109646;28;20225;-91
2022/05/12 09:52:46;;;;;;;4.35;2.70;;;;;;;33.94;26.88;99650.34;5109838;28;20197;-90
2022/05/12 09:55:18;;;;;;;6.25;3.10;;;;;;;33.89;25.21;99655.59;5109631;28;20260;-89
2022/05/12 09:57:52;;;;;;;5.38;2.90;;;;;;;33.86;26.24;99651.59;5109793;28;20193;-91
2022/05/12 10:00:34;;;;;;;4.22;2.90;;;;;;;33.76;25.48;99652.28;5109464;28;20281;-91
2022/05/12 10:08:46;;;;;;;4.85;2.80;;;;;;;33.82;25.91;99639.88;5109362;28;20201;-91
2022/05/12 10:11:15;;;;;;;3.33;2.78;;;;;;;33.59;26.68;99636.44;5108788;28;20224;-90
2022/05/12 10:13:47;;;;;;;4.95;3.00;;;;;;;33.48;27.13;99633.91;5108990;28;20229;-90
2022/05/12 10:16:17;;;;;;;3.30;3.00;;;;;;;33.32;28.20;99636.38;5108980;28;20249;-85
2022/05/12 10:18:47;;;;;;;7.63;3.92;;;;;;;32.88;27.01;99624.94;5108685;28;20212;-89
2022/05/12 10:21:21;;;;;;;6.78;3.13;;;;;;;32.66;29.88;99620.38;5108850;28;20213;-90
2022/05/12 10:23:58;;;;;;;5.10;2.90;;;;;;;32.32;30.19;99621.41;5108910;28;20198;-91
2022/05/12 10:26:35;;;;;;;4.90;2.78;;;;;;;32.42;27.61;99614.44;5108904;28;20847;-90
2022/05/12 10:29:09;;;;;;;2.97;2.67;;;;;;;32.83;27.69;99616.91;5109062;28;20276;-85
2022/05/12 10:31:44;;;;;;;4.55;2.78;;;;;;;32.92;28.35;99610.94;5108978;28;20189;-90
2022/05/12 10:34:28;;;;;;;4.97;3.00;;;;;;;33.21;31.02;99612.66;5109023;28;20208;-91
2022/05/12 10:37:02;;;;;;;2.75;2.45;;;;;;;33.71;27.22;99606.34;5108734;28;20719;-90
2022/05/12 10:39:37;;;;;;;2.80;2.50;;;;;;;33.17;25.11;99606.25;5108952;28;20240;-87
2022/05/12 10:42:28;;;;;;;3.78;2.58;;;;;;;32.90;26.44;99601.63;5108815;28;20197;-90
2022/05/12 10:45:09;;;;;;;3.80;2.55;;;;;;;33.18;25.60;99597.25;5108511;28;20223;-85
2022/05/12 10:48:00;;;;;;;4.72;2.60;;;;;;;32.98;25.63;99593.25;5108741;28;20671;-85
2022/05/12 10:50:31;;;;;;;2.95;2.65;;;;;;;33.22;27.25;99593.06;5108339;28;20221;-85
2022/05/12 10:53:08;;;;;;;4.60;2.55;;;;;;;33.18;25.53;99590.09;5108813;28;20193;-85
2022/05/12 10:55:44;;;;;;;3.80;2.60;;;;;;;33.38;26.65;99592.19;5108488;28;20233;-90
2022/05/12 10:58:26;;;;;;;3.22;2.50;;;;;;;33.50;25.69;99590.19;5108664;28;20197;-85
2022/05/12 11:01:09;;;;;;;4.68;2.50;;;;;;;33.55;24.23;99586.84;5108118;28;20225;-86
2022/05/12 11:03:41;;;;;;;3.88;2.70;;;;;;;33.29;25.13;99583.88;5108589;28;20289;-90
2022/05/12 11:06:12;;;;;;;3.33;2.55;;;;;;;33.47;27.35;99590.69;5108101;28;20244;-89
2022/05/12 11:08:46;;;;;;;2.75;2.47;;;;;;;33.59;25.62;99588.72;5108351;28;20250;-87
2022/05/12 11:11:16;;;;;;;3.08;2.53;;;;;;;33.66;25.26;99577.09;5108376;28;20646;-90
2022/05/12 11:13:50;;;;;;;4.55;2.53;;;;;;;33.45;26.33;99582.19;5108496;28;20212;-86
2022/05/12 11:16:21;;;;;;;4.68;2.55;;;;;;;33.37;26.96;99572.03;5108117;28;20213;-85
2022/05/12 11:18:54;;;;;;;2.97;2.63;;;;;;;33.17;26.10;99569.97;5108368;28;20193;-90
2022/05/12 11:21:25;;;;;;;2.92;2.63;;;;;;;33.28;27.44;99565.56;5108281;28;20229;-86
2022/05/12 11:24:06;;;;;;;4.65;2.30;;;;;;;33.17;24.79;99563.88;5108280;28;20198;-85
2022/05/12 11:26:47;;;;;;;6.20;2.30;;;;;;;33.11;24.40;99561.16;5108335;28;20225;-86
2022/05/12 11:32:17;;;;;;;3.30;2.33;;;;;;;33.01;23.41;99561.00;5110855;28;20185;-91
2022/05/12 11:34:48;;;;;;;2.33;2.10;;;;;;;32.62;24.17;99558.38;5112329;28;20233;-87
2022/05/12 11:37:31;;;;;;;3.30;2.30;;;;;;;33.10;27.95;99548.97;5112230;28;20268;-86
2022/05/12 11:40:00;;;;;;;4.70;2.90;;;;;;;33.21;26.21;99549.06;5112017;27;20225;-89
2022/05/12 11:42:28;;;;;;;3.35;2.47;;;;;;;33.16;27.93;99551.63;5111978;28;20189;-86
2022/05/12 11:45:02;;;;;;;3.25;2.55;;;;;;;33.02;29.51;99540.66;5111974;28;20224;-89
2022/05/12 11:48:02;;;;;;;2.47;2.22;;;;;;;32.73;27.39;99532.84;5111939;28;20201;-89
2022/05/12 11:51:08;;;;;;;4.60;2.53;;;;;;;32.62;26.20;99531.91;5111649;28;21384;-90
2022/05/12 11:53:53;;;;;;;3.30;2.50;;;;;;;32.83;25.91;99529.50;5085670;28;20666;-90
2022/05/12 11:56:45;;;;;;;4.07;2.50;;;;;;;32.69;25.69;99527.22;5111291;28;20738;-90
2022/05/12 11:59:31;;;;;;;5.90;2.50;;;;;;;32.59;25.92;99526.31;5111577;28;20206;-89
2022/05/12 12:02:01;;;;;;;5.55;2.60;;;;;;;32.60;25.54;99533.97;5098941;27;20659;-86
2022/05/12 12:04:49;;;;;;;3.78;2.47;;;;;;;32.45;24.59;99523.19;5111410;28;20217;-90
2022/05/12 12:07:53;;;;;;;3.30;2.60;;;;;;;32.70;26.72;99522.75;5106779;28;20256;-85
2022/05/12 12:10:36;;;;;;;3.03;2.33;;;;;;;32.76;27.79;99513.00;5111883;28;20221;-87
2022/05/12 12:13:06;;;;;;;4.60;2.47;;;;;;;32.45;24.27;99518.69;5111543;28;20198;-91
2022/05/12 12:16:02;;;;;;;4.55;2.60;;;;;;;32.37;25.33;99513.78;5111366;28;20225;-86
2022/05/12 12:18:54;;;;;;;3.22;2.47;;;;;;;32.17;24.74;99503.72;5106277;28;20600;-88
2022/05/12 12:34:19;;;;;;;4.28;2.53;;;;;;;33.11;26.17;99486.97;5126336;27;21112;-85
2022/05/12 12:37:08;;;;;;;3.55;2.50;;;;;;;33.05;27.09;99487.94;5126423;27;20291;-85